Time;durP1;ratioP1;P1;durP2;ratioP2;P2;SDS_P1;SDS_P2;PMS_P1;PMS_P2;Temp;Humidity;BMP_temperature;BMP_pressure;BME280_temperature;BME280_humidity;BME280_pressure;Samples;Min_cycle;Max_cycle;Signal;HPM_P1;HPM_P2
2021/04/27 00:00:22;;;;;;;6.27;4.87;;;-0.10;93.30;;;0.87;100.00;100462.63;4907672;28;100123;-60
2021/04/27 00:03:34;;;;;;;6.00;4.77;;;-0.10;93.40;;;0.89;100.00;100463.38;4908055;28;100122;-61
2021/04/27 00:06:45;;;;;;;7.73;4.47;;;-0.10;93.50;;;0.77;100.00;100458.84;4916136;28;100870;-60
2021/04/27 00:09:57;;;;;;;12.60;5.37;;;-0.20;93.70;;;0.61;100.00;100458.94;4927044;28;101084;-60
2021/04/27 00:13:08;;;;;;;8.63;4.53;;;-0.20;94.40;;;0.47;100.00;100456.25;4933653;28;100903;-60
2021/04/27 00:16:20;;;;;;;5.13;4.20;;;-0.30;94.80;;;0.37;100.00;100450.69;4947036;28;100087;-60
2021/04/27 00:19:31;;;;;;;8.03;4.27;;;-0.30;95.30;;;0.28;100.00;100464.38;4946374;28;100879;-60
2021/04/27 00:22:42;;;;;;;8.40;3.70;;;-0.40;95.50;;;0.24;100.00;100454.97;4946235;28;100273;-60
2021/04/27 00:26:06;;;;;;;7.37;4.37;;;-0.50;95.70;;;0.28;100.00;100452.06;4927099;28;100461;-61
2021/04/27 00:29:17;;;;;;;9.27;5.50;;;-0.60;95.90;;;0.29;100.00;100448.50;4947838;28;100336;-61
2021/04/27 00:32:29;;;;;;;9.97;4.17;;;-0.60;96.30;;;0.68;100.00;100442.66;4946731;28;100875;-60
2021/04/27 00:35:41;;;;;;;6.97;4.50;;;-0.60;97.20;;;0.79;100.00;100444.66;4945761;28;101203;-59
2021/04/27 00:38:52;;;;;;;5.93;4.60;;;-0.60;97.40;;;0.70;100.00;100442.56;4947374;28;100341;-59
2021/04/27 00:42:22;;;;;;;6.10;3.97;;;-0.60;97.80;;;1.26;100.00;100439.09;4946882;28;101351;-59
2021/04/27 00:48:58;;;;;;;7.33;4.10;;;-0.50;98.00;;;1.17;100.00;100433.56;4946114;28;100676;-58
2021/04/27 00:52:09;;;;;;;7.23;4.13;;;-0.50;98.40;;;1.15;100.00;100427.53;4946402;28;99960;-59
2021/04/27 00:55:33;;;;;;;6.13;3.73;;;-0.50;98.70;;;0.89;100.00;100429.97;4927874;28;100206;-61
2021/04/27 00:58:47;;;;;;;5.17;3.63;;;-0.40;98.90;;;0.88;100.00;100430.91;4946218;28;101340;-61
2021/04/27 01:01:58;;;;;;;5.67;4.33;;;-0.40;99.10;;;0.77;100.00;100427.25;4927716;28;102718;-61
2021/04/27 01:05:10;;;;;;;4.50;3.90;;;-0.50;99.20;;;0.83;100.00;100419.84;4946623;28;100366;-60
2021/04/27 01:11:58;;;;;;;5.50;4.00;;;-0.50;99.70;;;0.85;100.00;100414.47;4945496;28;100346;-59
2021/04/27 01:15:15;;;;;;;5.17;3.47;;;-0.50;99.80;;;0.74;100.00;100415.13;4946488;28;100122;-58
2021/04/27 01:18:27;;;;;;;5.03;3.53;;;-0.40;99.90;;;0.66;100.00;100409.47;4927578;28;100150;-60
2021/04/27 01:21:41;;;;;;;7.83;4.07;;;-0.50;99.90;;;0.59;100.00;100410.78;4927340;28;100321;-60
2021/04/27 01:25:01;;;;;;;7.63;4.13;;;-0.50;99.90;;;0.46;100.00;100402.75;4926235;28;101783;-60
2021/04/27 01:28:27;;;;;;;6.10;4.20;;;-0.40;99.90;;;0.35;100.00;100403.41;4927135;28;102347;-60
2021/04/27 01:31:39;;;;;;;7.10;4.17;;;-0.50;99.90;;;0.36;100.00;100417.41;4946131;28;100147;-60
2021/04/27 01:34:55;;;;;;;10.77;5.60;;;-0.60;99.90;;;0.26;100.00;100416.22;4927974;28;100435;-59
2021/04/27 01:38:18;;;;;;;9.43;5.73;;;-0.60;99.90;;;0.12;100.00;100410.94;4945023;28;101327;-60
2021/04/27 01:41:30;;;;;;;10.63;5.77;;;-0.70;99.90;;;0.04;100.00;100411.38;4926882;28;100661;-60
2021/04/27 01:44:45;;;;;;;7.23;4.73;;;-0.80;99.90;;;-0.14;100.00;100409.81;4926192;28;100278;-60
2021/04/27 01:48:20;;;;;;;10.20;4.77;;;-0.90;99.90;;;-0.28;100.00;100410.59;4943207;28;100559;-60
2021/04/27 01:51:33;;;;;;;5.67;4.33;;;-1.00;99.90;;;-0.12;100.00;100414.03;4902507;28;102906;-59
2021/04/27 01:55:32;;;;;;;10.23;4.47;;;-1.10;99.90;;;0.05;100.00;100409.59;4910201;28;100550;-59
2021/04/27 01:58:43;;;;;;;14.40;5.60;;;-1.10;99.90;;;0.08;100.00;100409.44;4902681;28;100404;-60
2021/04/27 02:01:57;;;;;;;6.27;4.40;;;-1.10;99.90;;;0.00;100.00;100402.81;4886414;28;100658;-59
2021/04/27 02:05:09;;;;;;;10.30;5.00;;;-1.10;99.90;;;-0.02;100.00;100406.47;4927023;28;103071;-59
2021/04/27 02:08:37;;;;;;;5.83;3.97;;;-1.10;99.90;;;0.30;100.00;100405.44;4942281;28;100530;-58
2021/04/27 02:11:52;;;;;;;6.77;4.03;;;-1.20;99.90;;;0.15;100.00;100406.34;4945757;28;101211;-58
2021/04/27 02:15:03;;;;;;;8.23;4.70;;;-1.10;99.90;;;0.04;100.00;100413.16;4927456;28;100483;-59
2021/04/27 02:18:35;;;;;;;9.53;5.30;;;-1.10;99.90;;;-0.05;100.00;100409.28;4944781;28;101797;-60
2021/04/27 02:21:51;;;;;;;7.67;5.10;;;-1.10;99.90;;;-0.21;100.00;100398.78;4926474;28;102649;-58
2021/04/27 02:25:12;;;;;;;5.70;4.40;;;-1.20;99.90;;;-0.28;100.00;100396.59;4942442;28;100176;-61
2021/04/27 02:28:24;;;;;;;8.97;4.73;;;-1.20;99.90;;;-0.06;100.00;100397.91;4926415;28;100235;-59
2021/04/27 02:31:36;;;;;;;7.83;4.53;;;-1.20;99.90;;;0.18;100.00;100394.78;4944516;28;101470;-59
2021/04/27 02:35:10;;;;;;;5.27;4.43;;;-1.20;99.90;;;-0.18;100.00;100392.50;4926469;28;102219;-60
2021/04/27 02:38:21;;;;;;;8.93;5.07;;;-1.20;99.90;;;-0.29;100.00;100397.53;4906919;28;100445;-58
2021/04/27 02:41:33;;;;;;;6.37;4.27;;;-1.20;99.90;;;-0.10;100.00;100385.00;4923783;28;100109;-59
2021/04/27 02:45:08;;;;;;;7.73;4.67;;;-1.30;99.90;;;-0.29;100.00;100393.13;4925139;28;100958;-57
2021/04/27 02:48:45;;;;;;;6.07;4.50;;;-1.30;99.90;;;-0.37;100.00;100390.06;4927000;28;100348;-60
2021/04/27 02:52:13;;;;;;;4.30;3.47;;;-1.30;99.90;;;-0.15;100.00;100380.03;4925845;28;100347;-61
2021/04/27 02:59:04;;;;;;;8.50;5.30;;;-1.40;99.90;;;-0.33;100.00;100373.19;4928101;28;100194;-59
2021/04/27 03:02:17;;;;;;;10.73;7.17;;;-1.40;99.90;;;-0.47;100.00;100376.59;4925670;28;103591;-61
2021/04/27 03:05:30;;;;;;;10.00;6.70;;;-1.40;99.90;;;-0.34;100.00;100383.78;4947687;28;100401;-60
2021/04/27 03:08:43;;;;;;;16.17;9.60;;;-1.50;99.90;;;-0.53;100.00;100384.84;4948351;28;100413;-61
2021/04/27 03:11:55;;;;;;;11.50;8.67;;;-1.50;99.90;;;-0.63;100.00;100377.56;4910247;28;102871;-60
2021/04/27 03:15:18;;;;;;;10.23;6.20;;;-1.60;99.90;;;-0.79;100.00;100370.50;4907080;28;100605;-60
2021/04/27 03:18:30;;;;;;;10.70;5.93;;;-1.60;99.90;;;-0.80;100.00;100374.06;4940678;28;100354;-60
2021/04/27 03:22:11;;;;;;;10.33;5.03;;;-1.70;99.90;;;-0.86;100.00;100370.91;4929547;28;100433;-60
2021/04/27 03:25:25;;;;;;;7.90;5.23;;;-1.80;99.90;;;-0.96;100.00;100374.97;4867892;28;102478;-59
2021/04/27 03:28:38;;;;;;;6.43;4.67;;;-1.90;99.90;;;-1.02;100.00;100381.44;4868487;28;102639;-60
2021/04/27 03:31:49;;;;;;;7.03;4.63;;;-1.90;99.90;;;-1.05;100.00;100378.97;4946984;28;100481;-59
2021/04/27 03:35:01;;;;;;;11.07;4.97;;;-2.00;99.90;;;-1.10;100.00;100387.06;4929421;28;100193;-60
2021/04/27 03:38:13;;;;;;;10.03;4.70;;;-2.10;99.90;;;-1.14;100.00;100385.56;4928696;28;103164;-60
2021/04/27 03:41:26;;;;;;;6.93;4.80;;;-2.10;99.90;;;-1.08;100.00;100374.72;4929274;28;101810;-60
2021/04/27 03:44:38;;;;;;;5.73;4.43;;;-2.20;99.90;;;-1.20;100.00;100385.03;4929189;28;100241;-58
2021/04/27 03:47:51;;;;;;;9.77;4.83;;;-2.20;99.90;;;-1.09;100.00;100390.53;4929505;28;100700;-58
2021/04/27 03:51:04;;;;;;;10.03;4.80;;;-2.20;99.90;;;-1.18;100.00;100386.63;4928501;28;102608;-59
2021/04/27 03:54:15;;;;;;;10.97;4.70;;;-2.30;99.90;;;-1.21;100.00;100385.94;4944383;28;100433;-59
2021/04/27 03:57:39;;;;;;;15.27;9.90;;;-2.30;99.90;;;-1.20;100.00;100391.13;4935597;28;100344;-59
2021/04/27 04:01:11;;;;;;;21.43;14.23;;;-2.30;99.90;;;-1.25;100.00;100393.16;4928497;28;100306;-59
2021/04/27 04:04:23;;;;;;;22.13;14.20;;;-2.30;99.90;;;-1.21;100.00;100384.16;4918801;28;102380;-59
2021/04/27 04:07:52;;;;;;;16.50;10.73;;;-2.30;99.90;;;-1.21;100.00;100389.41;4943685;28;100410;-59
2021/04/27 04:11:29;;;;;;;15.07;8.50;;;-2.30;99.90;;;-1.14;100.00;100396.06;4936867;28;100246;-61
2021/04/27 04:15:13;;;;;;;10.43;6.97;;;-2.20;99.90;;;-1.14;100.00;100398.69;4929201;28;100308;-58
2021/04/27 04:18:26;;;;;;;7.13;5.17;;;-2.20;99.90;;;-0.94;100.00;100388.88;4830052;28;103407;-61
2021/04/27 04:21:38;;;;;;;9.00;5.00;;;-2.10;99.90;;;-0.88;100.00;100399.91;4846924;28;100373;-60
2021/04/27 04:24:49;;;;;;;6.07;4.53;;;-2.10;99.90;;;-0.40;100.00;100395.50;4928320;28;100142;-59
2021/04/27 04:28:13;;;;;;;9.37;5.00;;;-2.10;99.90;;;-0.40;100.00;100403.41;4932121;28;100321;-61
2021/04/27 04:31:37;;;;;;;8.23;5.13;;;-2.00;99.90;;;-0.24;100.00;100393.69;4945941;28;101230;-61
2021/04/27 04:34:58;;;;;;;7.10;4.47;;;-1.90;99.90;;;0.21;100.00;100394.63;4944319;28;100222;-60
2021/04/27 04:38:19;;;;;;;9.60;4.73;;;-1.80;99.90;;;0.46;100.00;100394.03;4946697;28;100126;-60
2021/04/27 04:41:41;;;;;;;6.43;4.40;;;-1.70;99.90;;;0.69;100.00;100396.97;4944568;28;100284;-61
2021/04/27 04:48:41;;;;;;;6.40;5.60;;;-1.20;99.90;;;1.17;100.00;100392.25;4948862;28;100230;-60
2021/04/27 04:52:01;;;;;;;8.33;5.10;;;-1.00;99.90;;;1.22;100.00;100398.09;4963030;28;99909;-60
2021/04/27 04:55:30;;;;;;;9.50;4.87;;;-0.80;99.90;;;1.42;100.00;100394.19;4957888;28;101294;-60
2021/04/27 04:58:51;;;;;;;8.90;4.67;;;-0.60;99.90;;;1.57;100.00;100390.56;4946387;28;100124;-61
2021/04/27 05:02:04;;;;;;;8.23;5.53;;;-0.40;99.90;;;1.55;100.00;100399.50;4927205;28;102274;-59
2021/04/27 05:05:37;;;;;;;9.07;6.00;;;-0.20;99.90;;;1.58;100.00;100407.25;4931011;28;100244;-58
2021/04/27 05:08:59;;;;;;;9.43;5.27;;;0.10;99.90;;;1.80;100.00;100397.84;4944348;28;100361;-60
2021/04/27 05:12:20;;;;;;;8.13;4.87;;;0.20;99.90;;;1.88;100.00;100397.31;4946168;28;100487;-60
2021/04/27 05:15:49;;;;;;;9.43;4.30;;;0.40;99.90;;;2.11;100.00;100403.72;4942675;28;100757;-61
2021/04/27 05:19:00;;;;;;;7.63;4.57;;;0.70;99.90;;;1.93;100.00;100407.59;4946616;28;100074;-58
2021/04/27 05:22:13;;;;;;;7.17;4.37;;;1.00;99.90;;;2.25;100.00;100400.16;4928047;28;100520;-61
2021/04/27 05:25:26;;;;;;;7.47;4.50;;;1.20;99.90;;;3.08;100.00;100397.06;4927138;28;103198;-60
2021/04/27 05:28:58;;;;;;;8.83;4.83;;;1.40;99.90;;;3.62;100.00;100396.69;4941591;28;100936;-60
2021/04/27 05:32:09;;;;;;;8.13;4.50;;;1.70;99.90;;;3.78;100.00;100397.28;4946796;28;100001;-61
2021/04/27 05:35:21;;;;;;;7.53;4.17;;;2.10;99.90;;;4.14;100.00;100392.84;4950458;28;100359;-63
2021/04/27 05:38:33;;;;;;;8.23;4.80;;;2.50;99.90;;;3.90;100.00;100388.44;4951985;28;100160;-61
2021/04/27 05:41:44;;;;;;;6.97;5.07;;;2.80;99.90;;;3.61;100.00;100387.91;4947719;28;100326;-61
2021/04/27 05:44:56;;;;;;;9.83;6.03;;;3.20;98.50;;;4.37;100.00;100388.47;4947903;28;100106;-61
2021/04/27 05:48:07;;;;;;;8.87;5.70;;;3.40;97.80;;;3.77;100.00;100389.44;4946548;28;100112;-61
2021/04/27 05:54:48;;;;;;;12.33;6.33;;;3.90;94.40;;;5.11;100.00;100390.63;4943827;28;101155;-60
2021/04/27 05:58:11;;;;;;;9.00;5.53;;;4.10;93.90;;;4.78;100.00;100385.31;4945344;28;100289;-60
2021/04/27 06:01:22;;;;;;;13.60;6.03;;;4.40;93.00;;;5.07;100.00;100386.50;4946261;28;100135;-60
2021/04/27 06:04:34;;;;;;;11.03;6.60;;;4.60;92.10;;;5.29;100.00;100397.16;4945350;28;100583;-60
2021/04/27 06:07:45;;;;;;;12.20;5.80;;;4.80;91.20;;;4.97;100.00;100389.06;4945239;28;99927;-62
2021/04/27 06:10:57;;;;;;;10.80;6.53;;;5.10;89.30;;;5.79;100.00;100389.56;4945448;28;100040;-59
2021/04/27 06:14:08;;;;;;;8.63;6.13;;;5.30;87.70;;;5.47;100.00;100401.94;4946046;28;100143;-61
2021/04/27 06:21:13;;;;;;;10.90;6.17;;;5.70;84.00;;;5.85;100.00;100385.56;4902486;28;100161;-60
2021/04/27 06:24:25;;;;;;;9.53;6.10;;;6.00;79.30;;;6.26;100.00;100385.69;4926841;28;100219;-60
2021/04/27 06:27:37;;;;;;;8.90;6.10;;;6.20;79.10;;;6.74;100.00;100382.50;4947547;28;100045;-61
2021/04/27 06:30:48;;;;;;;9.77;5.50;;;6.50;77.70;;;6.46;100.00;100389.31;4953462;28;100148;-61
2021/04/27 06:34:23;;;;;;;9.47;6.10;;;6.80;75.20;;;6.88;100.00;100379.50;4946137;28;100170;-60
2021/04/27 06:41:13;;;;;;;8.23;6.10;;;7.30;71.00;;;7.12;100.00;100380.03;4926987;28;99602;-61
2021/04/27 06:44:26;;;;;;;7.77;5.50;;;7.50;69.70;;;7.40;100.00;100374.94;4927311;28;99870;-59
2021/04/27 06:51:06;;;;;;;8.57;5.27;;;8.10;67.00;;;8.07;100.00;100379.53;4925731;28;100035;-61
2021/04/27 06:54:28;;;;;;;9.67;5.30;;;8.40;65.10;;;8.59;100.00;100372.94;4932549;28;99850;-61
2021/04/27 06:57:40;;;;;;;9.30;5.53;;;8.80;63.90;;;9.04;100.00;100364.22;4954808;28;99572;-62
2021/04/27 07:01:30;;;;;;;8.03;5.27;;;9.20;62.40;;;8.77;100.00;100367.72;4934936;28;99892;-61
2021/04/27 07:04:42;;;;;;;10.23;5.40;;;9.70;60.80;;;9.34;100.00;100366.63;4893531;28;98405;-60
2021/04/27 07:07:53;;;;;;;7.87;4.27;;;10.10;58.10;;;9.05;100.00;100358.75;4927266;28;99762;-62
2021/04/27 07:11:06;;;;;;;8.90;5.07;;;10.40;56.20;;;9.74;100.00;100352.91;4923560;28;99901;-61
2021/04/27 07:14:17;;;;;;;6.03;3.87;;;10.70;55.00;;;10.08;100.00;100351.25;4932519;28;100064;-59
2021/04/27 07:17:30;;;;;;;6.67;4.33;;;11.00;54.00;;;9.60;100.00;100350.75;4959701;28;80368;-61
2021/04/27 07:20:41;;;;;;;5.50;3.70;;;11.30;51.40;;;9.78;100.00;100346.25;4942402;28;97179;-62
2021/04/27 07:23:58;;;;;;;4.10;2.50;;;11.60;50.30;;;9.82;92.00;100347.63;4941438;28;86793;-61
2021/04/27 07:27:10;;;;;;;4.77;2.40;;;11.80;46.00;;;9.56;80.33;100344.03;4937130;28;99790;-60
2021/04/27 07:30:22;;;;;;;4.50;2.33;;;11.80;43.50;;;9.64;76.11;100341.47;4927337;28;99904;-61
2021/04/27 07:33:35;;;;;;;4.10;2.60;;;11.80;42.90;;;9.75;67.29;100341.25;4930311;28;99829;-62
2021/04/27 07:36:46;;;;;;;3.83;2.60;;;11.70;41.70;;;9.35;71.23;100341.63;4931316;28;100435;-61
2021/04/27 07:40:33;;;;;;;4.13;2.23;;;11.60;41.40;;;9.57;64.00;100340.34;4919082;28;100073;-61
2021/04/27 07:43:55;;;;;;;3.00;1.90;;;11.50;40.80;;;9.96;56.63;100339.09;4887038;28;99953;-60
2021/04/27 07:50:37;;;;;;;3.53;1.73;;;11.50;40.30;;;9.52;53.83;100350.66;4899157;28;99586;-62
2021/04/27 07:53:48;;;;;;;3.30;2.37;;;11.60;38.80;;;9.69;55.13;100341.81;4931161;28;99549;-62
2021/04/27 07:57:00;;;;;;;3.87;2.30;;;11.50;39.20;;;10.24;53.32;100339.88;4933496;28;98054;-61
2021/04/27 08:00:11;;;;;;;4.17;2.10;;;11.40;39.40;;;10.76;51.38;100334.53;4932365;28;99583;-62
2021/04/27 08:03:32;;;;;;;2.20;1.80;;;11.50;40.00;;;9.84;49.06;100342.16;4933114;28;97833;-59
2021/04/27 08:06:44;;;;;;;3.13;2.00;;;11.80;38.00;;;9.99;52.49;100333.44;4914076;28;99369;-60
2021/04/27 08:09:55;;;;;;;3.50;2.27;;;11.90;38.30;;;10.52;52.23;100324.53;4944814;28;98290;-60
2021/04/27 08:13:08;;;;;;;4.00;2.37;;;11.80;38.30;;;11.52;47.63;100331.88;4965386;28;92084;-62
2021/04/27 08:16:19;;;;;;;6.67;2.43;;;11.90;39.20;;;10.51;50.17;100327.38;4973615;28;65246;-61
2021/04/27 08:19:30;;;;;;;3.00;1.87;;;12.20;37.60;;;10.84;46.48;100321.22;4980716;28;62905;-61
2021/04/27 08:22:43;;;;;;;2.23;1.93;;;12.30;37.10;;;10.19;46.53;100331.47;4980411;28;51554;-62
2021/04/27 08:25:54;;;;;;;2.87;2.00;;;12.40;36.60;;;10.36;44.76;100340.47;4982304;28;55917;-61
2021/04/27 08:29:17;;;;;;;3.90;2.00;;;12.30;36.50;;;10.97;49.29;100324.31;4980223;28;59561;-61
2021/04/27 08:32:35;;;;;;;2.40;1.80;;;12.10;36.10;;;10.79;39.59;100315.50;4967954;28;90858;-62
2021/04/27 08:36:06;;;;;;;2.03;1.67;;;12.10;36.90;;;11.10;41.33;100321.19;4942537;28;80382;-62
2021/04/27 08:39:18;;;;;;;2.40;1.60;;;12.20;36.00;;;11.05;41.91;100310.94;4984900;28;79219;-61
2021/04/27 08:45:47;;;;;;;1.90;1.40;;;12.70;35.10;;;11.26;40.56;100321.25;4973209;28;80415;-62
2021/04/27 08:49:22;;;;;;;3.67;1.43;;;12.60;35.00;;;11.50;41.33;100315.13;4992077;28;64484;-62
2021/04/27 08:52:33;;;;;;;2.80;1.50;;;12.70;35.10;;;11.03;41.09;100309.44;4956903;28;79869;-61
2021/04/27 08:55:46;;;;;;;2.13;1.50;;;12.90;35.00;;;10.68;40.39;100316.63;4970910;28;89525;-61
2021/04/27 08:58:57;;;;;;;1.90;1.50;;;13.00;34.00;;;10.57;41.34;100305.34;4960217;28;90313;-61
2021/04/27 09:13:45;;;;;;;2.53;1.37;;;13.30;32.90;;;10.74;36.69;100286.56;4902723;28;76692;-61
2021/04/27 09:17:03;;;;;;;2.10;1.40;;;13.30;32.00;;;11.08;37.86;100289.22;4917943;28;73723;-61
2021/04/27 09:28:14;;;;;;;3.97;1.40;;;13.30;32.00;;;11.12;36.64;100279.88;4911742;28;82526;-62
2021/04/27 09:31:46;;;;;;;2.33;1.17;;;13.30;31.30;;;12.40;36.97;100270.47;4925620;28;70502;-61
2021/04/27 09:34:59;;;;;;;2.50;1.20;;;13.30;32.60;;;12.02;32.54;100266.63;4967868;28;78731;-61
2021/04/27 09:42:02;;;;;;;2.10;1.50;;;13.60;31.00;;;12.41;35.13;100266.78;4986270;28;78925;-61
2021/04/27 09:45:26;;;;;;;3.83;1.50;;;13.90;31.40;;;12.53;33.63;100257.34;4966840;28;83612;-59
2021/04/27 09:52:19;;;;;;;2.00;1.30;;;14.50;31.70;;;11.56;31.97;100250.16;4999642;28;54070;-60
2021/04/27 09:55:39;;;;;;;2.10;1.30;;;14.50;29.40;;;11.48;33.41;100259.03;4992860;28;78221;-61
2021/04/27 09:58:50;;;;;;;4.10;1.60;;;14.20;29.70;;;11.66;32.68;100245.47;4988922;28;71621;-61
2021/04/27 10:02:05;;;;;;;1.27;1.13;;;14.10;29.80;;;13.41;31.43;100231.16;4989101;28;72426;-61
2021/04/27 10:05:18;;;;;;;2.17;1.43;;;14.20;30.40;;;12.22;31.47;100230.44;4991498;28;67193;-62
2021/04/27 10:08:30;;;;;;;9.90;1.80;;;14.40;29.70;;;12.17;30.46;100238.97;4991208;28;66021;-62
2021/04/27 10:11:42;;;;;;;6.63;1.30;;;14.60;29.40;;;12.77;29.55;100234.97;4995829;28;52468;-61
2021/04/27 10:14:54;;;;;;;2.77;1.50;;;14.70;28.80;;;12.32;29.59;100227.56;4974829;28;62227;-61
2021/04/27 10:18:07;;;;;;;1.60;1.30;;;14.90;29.20;;;12.99;29.79;100219.94;4975788;28;55065;-62
2021/04/27 10:21:20;;;;;;;2.33;1.50;;;15.20;29.40;;;13.10;31.77;100214.19;4997289;28;53175;-62
2021/04/27 10:24:47;;;;;;;2.42;1.63;;;15.60;29.90;;;12.49;31.23;100221.13;4989941;28;62301;-61
2021/04/27 10:28:01;;;;;;;2.83;1.40;;;15.70;28.90;;;12.84;32.20;100206.44;4975338;28;53166;-62
2021/04/27 10:31:32;;;;;;;3.92;2.20;;;15.60;28.50;;;13.10;31.18;100190.84;4978838;28;62261;-62
2021/04/27 10:34:45;;;;;;;3.50;1.70;;;15.60;29.40;;;12.67;31.84;100188.69;4981883;28;51141;-62
2021/04/27 10:38:22;;;;;;;4.68;2.08;;;15.90;29.10;;;12.94;32.13;100190.94;4981614;28;55525;-62
2021/04/27 10:41:52;;;;;;;3.10;1.67;;;16.00;28.60;;;13.32;29.67;100185.72;4936823;28;62910;-60
2021/04/27 10:45:17;;;;;;;3.55;1.70;;;16.20;28.50;;;13.57;31.97;100185.34;4964609;28;73311;-61
2021/04/27 10:48:44;;;;;;;2.67;1.70;;;16.30;28.40;;;12.72;34.92;100179.13;4968651;28;69701;-62
2021/04/27 10:52:11;;;;;;;2.08;1.73;;;16.30;28.50;;;12.40;31.84;100180.06;4974856;28;56375;-62
2021/04/27 10:56:00;;;;;;;4.15;1.60;;;16.30;28.70;;;13.11;32.28;100170.16;4990095;28;61846;-60
2021/04/27 10:59:25;;;;;;;2.67;2.03;;;16.50;28.70;;;12.47;34.12;100172.19;4992837;28;57955;-61
2021/04/27 11:02:49;;;;;;;3.83;1.90;;;16.50;28.00;;;12.68;31.74;100150.13;4991876;28;61636;-60
2021/04/27 11:06:24;;;;;;;1.80;1.58;;;16.40;27.60;;;13.01;29.82;100140.84;4994927;28;58503;-62
2021/04/27 11:09:41;;;;;;;2.33;1.90;;;16.40;27.40;;;14.10;27.06;100128.88;4975379;28;58895;-62
2021/04/27 11:13:16;;;;;;;3.75;1.75;;;16.70;27.70;;;13.85;28.99;100136.34;4974254;28;57350;-62
2021/04/27 11:16:52;;;;;;;2.60;1.40;;;17.20;27.00;;;13.73;31.11;100129.75;4953858;28;56541;-62
2021/04/27 11:20:25;;;;;;;2.25;1.60;;;17.40;26.60;;;13.73;28.39;100124.38;4988661;28;60701;-60
2021/04/27 11:23:42;;;;;;;3.85;1.38;;;17.60;27.10;;;12.90;29.38;100119.78;4932757;28;62298;-62
2021/04/27 11:27:12;;;;;;;2.75;1.80;;;17.70;25.80;;;13.04;30.88;100127.09;5002349;28;53577;-61
2021/04/27 11:30:27;;;;;;;2.22;1.45;;;17.30;26.40;;;14.40;29.12;100116.28;5000362;28;51609;-62
2021/04/27 11:33:43;;;;;;;2.67;1.50;;;17.30;27.70;;;14.14;29.02;100117.56;4996776;28;55283;-62
2021/04/27 11:37:01;;;;;;;3.30;1.77;;;17.50;26.80;;;14.31;29.11;100115.53;4996874;28;54075;-62
2021/04/27 11:40:19;;;;;;;3.90;1.52;;;17.60;26.40;;;14.38;29.29;100100.28;4980495;28;52808;-62
2021/04/27 11:43:34;;;;;;;3.53;1.70;;;17.90;26.50;;;14.96;27.71;100098.56;4981960;28;48161;-62
2021/04/27 11:46:52;;;;;;;3.30;1.85;;;18.40;26.60;;;15.33;26.49;100092.88;4986106;28;52070;-62
2021/04/27 11:50:16;;;;;;;2.88;1.63;;;18.80;26.40;;;13.18;27.66;100101.34;4982126;28;52907;-61
2021/04/27 11:53:31;;;;;;;1.60;1.30;;;19.30;25.10;;;13.25;30.22;100099.59;4982694;28;49546;-61
2021/04/27 11:56:48;;;;;;;4.70;1.73;;;18.90;24.40;;;13.05;27.77;100088.47;4981167;28;57402;-62
2021/04/27 12:00:06;;;;;;;2.88;1.50;;;18.40;24.30;;;12.91;26.26;100087.38;4986813;28;54641;-62
2021/04/27 12:03:31;;;;;;;3.10;1.58;;;17.80;24.40;;;13.36;28.55;100076.81;4997866;28;55994;-62
2021/04/27 12:06:52;;;;;;;2.53;1.55;;;17.40;24.80;;;13.39;27.30;100080.00;4999087;28;54760;-62
2021/04/27 12:10:11;;;;;;;1.88;1.60;;;17.10;25.70;;;14.19;27.73;100069.44;5001326;28;50156;-61
2021/04/27 12:13:34;;;;;;;3.95;1.50;;;17.10;26.10;;;13.28;27.88;100077.75;4998773;28;49704;-62
2021/04/27 12:16:48;;;;;;;4.28;1.83;;;17.10;25.30;;;13.43;26.97;100067.03;5000125;28;51683;-61
2021/04/27 12:20:07;;;;;;;2.83;1.65;;;17.10;25.50;;;14.38;26.85;100068.84;4999001;28;56662;-62
2021/04/27 12:23:23;;;;;;;3.17;1.80;;;17.10;26.00;;;14.00;26.76;100062.72;4999631;28;56937;-61
2021/04/27 12:26:34;;;;;;;4.22;1.80;;;17.40;25.50;;;14.56;26.12;100056.88;4999770;28;53913;-62
2021/04/27 12:30:05;;;;;;;3.88;1.60;;;17.70;25.60;;;14.44;26.73;100053.84;5001461;28;48312;-61
2021/04/27 12:33:22;;;;;;;5.65;2.10;;;18.00;25.20;;;13.47;27.61;100055.75;5004393;28;48456;-61
2021/04/27 12:36:41;;;;;;;1.98;1.50;;;17.90;24.30;;;13.52;26.87;100052.50;5002036;28;49771;-61
2021/04/27 12:40:26;;;;;;;3.05;1.77;;;17.30;24.70;;;13.82;27.64;100043.47;5003935;28;49058;-62
2021/04/27 12:43:46;;;;;;;2.97;1.88;;;16.90;25.30;;;14.17;26.98;100032.97;4944417;28;60607;-62
2021/04/27 12:47:10;;;;;;;1.33;1.13;;;16.90;25.60;;;13.96;24.58;100045.31;4999850;28;56520;-62
2021/04/27 12:54:47;;;;;;;2.95;1.80;;;17.20;24.20;;;13.70;24.98;100039.56;4998237;28;47571;-62
2021/04/27 12:57:59;;;;;;;3.72;1.48;;;17.10;23.50;;;14.40;25.29;100028.31;4949289;28;55070;-61
2021/04/27 13:01:17;;;;;;;3.47;1.30;;;17.10;24.70;;;13.88;26.14;100021.19;4996127;28;51153;-62
2021/04/27 13:04:36;;;;;;;2.55;1.50;;;17.20;24.50;;;13.92;26.51;100014.44;5006380;28;49541;-62
2021/04/27 13:08:13;;;;;;;2.15;1.52;;;17.10;24.60;;;14.48;26.48;100019.28;5002250;28;48595;-62
2021/04/27 13:11:31;;;;;;;2.10;1.38;;;16.80;25.00;;;13.83;25.41;100015.56;5004384;28;49238;-61
2021/04/27 13:14:56;;;;;;;1.63;1.45;;;16.70;25.00;;;14.48;25.22;100017.41;4984902;28;52207;-62
2021/04/27 13:18:14;;;;;;;6.43;1.98;;;16.50;25.60;;;14.36;25.32;100017.03;5002167;28;50175;-60
2021/04/27 13:21:30;;;;;;;2.25;1.70;;;16.50;25.60;;;14.46;25.55;100011.41;4999819;28;55239;-62
2021/04/27 13:24:55;;;;;;;1.67;1.58;;;16.60;25.10;;;14.80;24.65;100002.66;5002857;28;49685;-62
2021/04/27 13:28:24;;;;;;;4.72;1.77;;;16.80;25.30;;;14.21;24.96;100002.81;5002604;28;50680;-62
2021/04/27 13:32:14;;;;;;;2.88;2.00;;;17.00;25.00;;;14.03;24.97;100000.50;5004326;28;47290;-62
2021/04/27 13:35:44;;;;;;;2.08;1.75;;;17.10;24.60;;;14.65;25.23;99996.47;5004340;28;49222;-62
2021/04/27 13:38:58;;;;;;;3.63;2.10;;;17.20;25.30;;;15.33;27.08;99984.25;5005285;28;44976;-60
2021/04/27 13:45:38;;;;;;;2.42;1.80;;;17.80;26.60;;;14.89;26.55;99974.53;5008239;28;44454;-61
2021/04/27 13:48:51;;;;;;;4.32;1.70;;;18.30;25.70;;;14.80;25.41;99964.09;4986358;28;48769;-60
2021/04/27 13:52:08;;;;;;;2.95;1.83;;;18.40;25.70;;;14.28;24.81;99966.03;5000886;28;46601;-63
2021/04/27 13:55:20;;;;;;;1.92;1.60;;;18.40;24.00;;;14.48;24.91;99960.03;5004500;28;42609;-62
2021/04/27 13:58:32;;;;;;;3.70;1.80;;;18.00;23.60;;;14.87;25.06;99960.44;5002901;28;48079;-62
2021/04/27 14:05:13;;;;;;;3.15;1.90;;;17.50;24.70;;;15.05;25.10;99952.72;4990119;28;40817;-61
2021/04/27 14:08:25;;;;;;;2.50;1.90;;;17.60;25.10;;;15.38;26.23;99939.47;4989710;28;46570;-62
2021/04/27 14:11:36;;;;;;;3.30;1.90;;;17.70;25.50;;;15.69;25.50;99936.41;4998224;28;37096;-61
2021/04/27 14:14:47;;;;;;;3.03;1.73;;;17.90;25.60;;;15.10;26.35;99938.66;4990939;28;41619;-60
2021/04/27 14:18:00;;;;;;;3.22;1.63;;;18.10;25.40;;;15.33;24.63;99931.13;5016063;28;52228;-60
2021/04/27 14:21:12;;;;;;;2.92;1.90;;;18.10;24.90;;;15.21;25.55;99934.56;5016638;28;47185;-60
2021/04/27 14:24:23;;;;;;;3.05;1.85;;;17.90;24.70;;;15.98;25.16;99920.94;5018453;28;42846;-61
2021/04/27 14:27:35;;;;;;;2.28;1.50;;;18.00;25.70;;;15.32;25.97;99921.41;5025232;28;46554;-62
2021/04/27 14:30:47;;;;;;;4.75;1.80;;;18.10;25.60;;;15.33;26.58;99912.28;5016914;28;39960;-61
2021/04/27 14:34:07;;;;;;;2.70;1.90;;;18.20;25.70;;;15.35;26.63;99909.38;5023794;28;36228;-61
2021/04/27 14:37:19;;;;;;;2.95;1.73;;;18.20;25.50;;;15.46;27.11;99904.25;4989808;28;38366;-61
2021/04/27 14:40:33;;;;;;;2.08;1.70;;;18.10;26.10;;;15.13;27.35;99900.53;5019976;28;41434;-62
2021/04/27 14:43:44;;;;;;;2.72;1.60;;;17.90;25.50;;;15.57;27.88;99902.94;5022595;28;31908;-61
2021/04/27 14:46:56;;;;;;;1.90;1.60;;;17.60;26.20;;;15.14;26.64;99901.38;5029753;28;38288;-60
2021/04/27 14:50:07;;;;;;;2.80;1.63;;;17.60;26.50;;;14.98;27.36;99906.03;5028260;28;38470;-62
2021/04/27 14:53:20;;;;;;;2.30;1.98;;;17.30;26.00;;;15.05;27.33;99908.78;4981385;28;39826;-60